sensor_id;sensor_type;location;lat;lon;timestamp;pressure;altitude;pressure_sealevel;temperature;humidity
67345;BME280;54230;52.402;6.276;2022-07-06T00:00:00;102490.00000000001;;;15.2;66.1
67345;BME280;54230;52.402;6.276;2022-07-06T00:05:00;102500.0;;;15.2;66.3
67345;BME280;54230;52.402;6.276;2022-07-06T00:10:00;102490.00000000001;;;14.9;66.9
67345;BME280;54230;52.402;6.276;2022-07-06T00:15:00;102500.0;;;14.9;67.4
67345;BME280;54230;52.402;6.276;2022-07-06T00:20:00;102500.0;;;14.8;68.1
67345;BME280;54230;52.402;6.276;2022-07-06T00:25:00;102500.0;;;14.7;68.5
67345;BME280;54230;52.402;6.276;2022-07-06T00:30:00;102490.00000000001;;;14.6;68.7
67345;BME280;54230;52.402;6.276;2022-07-06T00:35:00;102490.00000000001;;;14.6;69.1
67345;BME280;54230;52.402;6.276;2022-07-06T00:40:00;102490.00000000001;;;14.5;69.6
67345;BME280;54230;52.402;6.276;2022-07-06T00:45:00;102490.00000000001;;;14.4;69.7
67345;BME280;54230;52.402;6.276;2022-07-06T00:50:00;102509.99999999999;;;14.3;70.3
67345;BME280;54230;52.402;6.276;2022-07-06T00:55:00;102509.99999999999;;;14.3;69.9
67345;BME280;54230;52.402;6.276;2022-07-06T01:00:00;102509.99999999999;;;14.3;70.5
67345;BME280;54230;52.402;6.276;2022-07-06T01:05:00;102509.99999999999;;;14.2;70.6
67345;BME280;54230;52.402;6.276;2022-07-06T01:10:01;102509.99999999999;;;14.2;70.5
67345;BME280;54230;52.402;6.276;2022-07-06T01:15:00;102509.99999999999;;;14.2;70.2
67345;BME280;54230;52.402;6.276;2022-07-06T01:20:07;102509.99999999999;;;14.1;70.8
67345;BME280;54230;52.402;6.276;2022-07-06T01:25:00;102509.99999999999;;;14.1;70.9
67345;BME280;54230;52.402;6.276;2022-07-06T01:30:00;102509.99999999999;;;14.1;70.8
67345;BME280;54230;52.402;6.276;2022-07-06T01:35:00;102490.00000000001;;;14.1;71.3
67345;BME280;54230;52.402;6.276;2022-07-06T01:40:00;102490.00000000001;;;14.2;71.3
67345;BME280;54230;52.402;6.276;2022-07-06T01:45:00;102500.0;;;14.2;71.2
67345;BME280;54230;52.402;6.276;2022-07-06T01:50:00;102500.0;;;14.2;71.6
67345;BME280;54230;52.402;6.276;2022-07-06T01:55:00;102500.0;;;14.3;71.9
67345;BME280;54230;52.402;6.276;2022-07-06T02:00:00;102490.00000000001;;;14.3;72.2
67345;BME280;54230;52.402;6.276;2022-07-06T02:05:00;102490.00000000001;;;14.4;72.1
67345;BME280;54230;52.402;6.276;2022-07-06T02:10:00;102490.00000000001;;;14.4;72.2
67345;BME280;54230;52.402;6.276;2022-07-06T02:15:00;102490.00000000001;;;14.4;72.2
67345;BME280;54230;52.402;6.276;2022-07-06T02:20:00;102490.00000000001;;;14.5;72.1
67345;BME280;54230;52.402;6.276;2022-07-06T02:25:00;102480.0;;;14.5;71.9
67345;BME280;54230;52.402;6.276;2022-07-06T02:30:00;102480.0;;;14.5;72.0
67345;BME280;54230;52.402;6.276;2022-07-06T02:35:00;102480.0;;;14.4;72.1
67345;BME280;54230;52.402;6.276;2022-07-06T02:40:00;102480.0;;;14.4;72.2
67345;BME280;54230;52.402;6.276;2022-07-06T02:45:00;102490.00000000001;;;14.5;72.0
67345;BME280;54230;52.402;6.276;2022-07-06T02:50:00;102490.00000000001;;;14.5;72.1
67345;BME280;54230;52.402;6.276;2022-07-06T02:55:00;102490.00000000001;;;14.6;71.9
67345;BME280;54230;52.402;6.276;2022-07-06T03:00:00;102480.0;;;14.5;72.1
67345;BME280;54230;52.402;6.276;2022-07-06T03:05:00;102470.0;;;14.4;72.7
67345;BME280;54230;52.402;6.276;2022-07-06T03:10:00;102490.00000000001;;;14.4;72.3
67345;BME280;54230;52.402;6.276;2022-07-06T03:15:00;102490.00000000001;;;14.5;72.1
67345;BME280;54230;52.402;6.276;2022-07-06T03:20:00;102500.0;;;14.5;72.3
67345;BME280;54230;52.402;6.276;2022-07-06T03:25:00;102500.0;;;14.5;72.3
67345;BME280;54230;52.402;6.276;2022-07-06T03:30:00;102500.0;;;14.4;72.4
67345;BME280;54230;52.402;6.276;2022-07-06T03:35:00;102509.99999999999;;;14.4;72.6
67345;BME280;54230;52.402;6.276;2022-07-06T03:40:00;102509.99999999999;;;14.3;71.9
67345;BME280;54230;52.402;6.276;2022-07-06T03:45:00;102500.0;;;14.3;72.3
67345;BME280;54230;52.402;6.276;2022-07-06T03:50:00;102500.0;;;14.4;71.8
67345;BME280;54230;52.402;6.276;2022-07-06T03:55:00;102509.99999999999;;;14.4;72.0
67345;BME280;54230;52.402;6.276;2022-07-06T04:00:00;102509.99999999999;;;14.4;71.8
67345;BME280;54230;52.402;6.276;2022-07-06T04:05:00;102509.99999999999;;;14.3;72.4
67345;BME280;54230;52.402;6.276;2022-07-06T04:10:00;102500.0;;;14.3;73.0
67345;BME280;54230;52.402;6.276;2022-07-06T04:15:00;102500.0;;;14.2;73.4
67345;BME280;54230;52.402;6.276;2022-07-06T04:20:00;102509.99999999999;;;14.1;74.0
67345;BME280;54230;52.402;6.276;2022-07-06T04:25:00;102509.99999999999;;;14.1;74.3
67345;BME280;54230;52.402;6.276;2022-07-06T04:30:00;102500.0;;;14.2;74.8
67345;BME280;54230;52.402;6.276;2022-07-06T04:35:00;102509.99999999999;;;14.2;74.7
67345;BME280;54230;52.402;6.276;2022-07-06T04:40:00;102509.99999999999;;;14.2;74.7
67345;BME280;54230;52.402;6.276;2022-07-06T04:45:00;102509.99999999999;;;14.2;75.1
67345;BME280;54230;52.402;6.276;2022-07-06T04:50:00;102509.99999999999;;;14.3;74.8
67345;BME280;54230;52.402;6.276;2022-07-06T04:55:00;102509.99999999999;;;14.2;74.9
67345;BME280;54230;52.402;6.276;2022-07-06T05:00:00;102520.0;;;14.1;75.2
67345;BME280;54230;52.402;6.276;2022-07-06T05:05:00;102520.0;;;14.1;75.2
67345;BME280;54230;52.402;6.276;2022-07-06T05:10:00;102520.0;;;14.1;75.1
67345;BME280;54230;52.402;6.276;2022-07-06T05:15:00;102530.0;;;14.2;74.8
67345;BME280;54230;52.402;6.276;2022-07-06T05:20:00;102530.0;;;14.3;74.7
67345;BME280;54230;52.402;6.276;2022-07-06T05:25:00;102540.00000000001;;;14.5;73.9
67345;BME280;54230;52.402;6.276;2022-07-06T05:30:00;102530.0;;;14.6;73.7
67345;BME280;54230;52.402;6.276;2022-07-06T05:35:00;102540.00000000001;;;15.0;72.7
67345;BME280;54230;52.402;6.276;2022-07-06T05:40:00;102530.0;;;15.1;72.5
67345;BME280;54230;52.402;6.276;2022-07-06T05:45:00;102530.0;;;15.2;72.2
67345;BME280;54230;52.402;6.276;2022-07-06T05:50:00;102530.0;;;15.2;71.9
67345;BME280;54230;52.402;6.276;2022-07-06T05:55:00;102530.0;;;15.4;71.6
67345;BME280;54230;52.402;6.276;2022-07-06T06:00:00;102540.00000000001;;;15.5;70.6
67345;BME280;54230;52.402;6.276;2022-07-06T06:05:00;102550.0;;;15.7;69.7
67345;BME280;54230;52.402;6.276;2022-07-06T06:10:00;102550.0;;;15.9;68.6
67345;BME280;54230;52.402;6.276;2022-07-06T06:15:00;102550.0;;;16.0;68.1
67345;BME280;54230;52.402;6.276;2022-07-06T06:20:00;102559.99999999999;;;16.4;66.5
67345;BME280;54230;52.402;6.276;2022-07-06T06:25:00;102559.99999999999;;;16.8;65.3
67345;BME280;54230;52.402;6.276;2022-07-06T06:30:00;102559.99999999999;;;16.8;65.4
67345;BME280;54230;52.402;6.276;2022-07-06T06:35:00;102559.99999999999;;;16.8;64.5
67345;BME280;54230;52.402;6.276;2022-07-06T06:40:00;102559.99999999999;;;16.9;62.4
67345;BME280;54230;52.402;6.276;2022-07-06T06:45:00;102559.99999999999;;;17.0;62.6
67345;BME280;54230;52.402;6.276;2022-07-06T06:50:00;102559.99999999999;;;16.9;62.8
67345;BME280;54230;52.402;6.276;2022-07-06T06:55:00;102559.99999999999;;;16.7;63.7
67345;BME280;54230;52.402;6.276;2022-07-06T07:00:00;102570.0;;;16.8;64.0
67345;BME280;54230;52.402;6.276;2022-07-06T07:05:00;102570.0;;;16.6;64.7
67345;BME280;54230;52.402;6.276;2022-07-06T07:10:00;102580.0;;;16.7;64.4
67345;BME280;54230;52.402;6.276;2022-07-06T07:15:00;102570.0;;;17.0;63.2
67345;BME280;54230;52.402;6.276;2022-07-06T07:20:00;102570.0;;;17.4;61.5
67345;BME280;54230;52.402;6.276;2022-07-06T07:25:00;102570.0;;;17.5;59.8
67345;BME280;54230;52.402;6.276;2022-07-06T07:30:00;102580.0;;;17.5;59.4
67345;BME280;54230;52.402;6.276;2022-07-06T07:35:00;102580.0;;;17.5;59.3
67345;BME280;54230;52.402;6.276;2022-07-06T07:40:00;102570.0;;;17.7;58.4
67345;BME280;54230;52.402;6.276;2022-07-06T07:45:00;102580.0;;;18.1;57.2
67345;BME280;54230;52.402;6.276;2022-07-06T07:50:00;102580.0;;;18.4;56.5
67345;BME280;54230;52.402;6.276;2022-07-06T07:55:00;102580.0;;;18.8;55.4
67345;BME280;54230;52.402;6.276;2022-07-06T08:00:00;102580.0;;;18.4;55.9
67345;BME280;54230;52.402;6.276;2022-07-06T08:05:00;102570.0;;;18.0;57.1
67345;BME280;54230;52.402;6.276;2022-07-06T08:10:00;102570.0;;;18.1;56.9
67345;BME280;54230;52.402;6.276;2022-07-06T08:15:00;102570.0;;;18.4;56.6
67345;BME280;54230;52.402;6.276;2022-07-06T08:20:00;102559.99999999999;;;18.4;55.7
67345;BME280;54230;52.402;6.276;2022-07-06T08:25:00;102559.99999999999;;;18.5;54.1
67345;BME280;54230;52.402;6.276;2022-07-06T08:30:00;102559.99999999999;;;18.6;52.9
67345;BME280;54230;52.402;6.276;2022-07-06T08:35:00;102559.99999999999;;;19.3;48.6
67345;BME280;54230;52.402;6.276;2022-07-06T08:40:00;102570.0;;;18.9;50.7
67345;BME280;54230;52.402;6.276;2022-07-06T08:45:01;102570.0;;;18.6;52.1
67345;BME280;54230;52.402;6.276;2022-07-06T08:50:01;102570.0;;;18.3;52.5
67345;BME280;54230;52.402;6.276;2022-07-06T08:55:00;102570.0;;;18.4;51.6
67345;BME280;54230;52.402;6.276;2022-07-06T09:00:00;102570.0;;;18.5;51.5
67345;BME280;54230;52.402;6.276;2022-07-06T09:05:00;102559.99999999999;;;18.7;51.1
67345;BME280;54230;52.402;6.276;2022-07-06T09:10:01;102559.99999999999;;;19.0;51.0
67345;BME280;54230;52.402;6.276;2022-07-06T09:15:00;102559.99999999999;;;18.8;51.3
67345;BME280;54230;52.402;6.276;2022-07-06T09:20:00;102559.99999999999;;;18.8;51.0
67345;BME280;54230;52.402;6.276;2022-07-06T09:25:03;102559.99999999999;;;19.2;50.9
67345;BME280;54230;52.402;6.276;2022-07-06T09:30:00;102559.99999999999;;;19.8;49.4
67345;BME280;54230;52.402;6.276;2022-07-06T09:35:00;102559.99999999999;;;20.2;47.6
67345;BME280;54230;52.402;6.276;2022-07-06T09:40:00;102559.99999999999;;;20.0;47.4
67345;BME280;54230;52.402;6.276;2022-07-06T09:45:02;102570.0;;;20.0;46.6
67345;BME280;54230;52.402;6.276;2022-07-06T09:50:00;102570.0;;;20.0;45.9
67345;BME280;54230;52.402;6.276;2022-07-06T09:55:00;102570.0;;;20.2;46.0
67345;BME280;54230;52.402;6.276;2022-07-06T10:00:00;102570.0;;;19.8;46.1
67345;BME280;54230;52.402;6.276;2022-07-06T10:05:00;102570.0;;;20.0;46.5
67345;BME280;54230;52.402;6.276;2022-07-06T10:10:00;102590.00000000001;;;20.5;45.7
67345;BME280;54230;52.402;6.276;2022-07-06T10:15:00;102580.0;;;20.6;43.2
67345;BME280;54230;52.402;6.276;2022-07-06T10:20:01;102580.0;;;20.8;43.7
67345;BME280;54230;52.402;6.276;2022-07-06T10:25:01;102580.0;;;20.9;43.8
67345;BME280;54230;52.402;6.276;2022-07-06T10:30:00;102570.0;;;21.6;41.8
67345;BME280;54230;52.402;6.276;2022-07-06T10:35:00;102570.0;;;21.6;41.8
67345;BME280;54230;52.402;6.276;2022-07-06T10:40:00;102559.99999999999;;;21.6;41.8
67345;BME280;54230;52.402;6.276;2022-07-06T10:45:00;102570.0;;;21.5;41.1
67345;BME280;54230;52.402;6.276;2022-07-06T10:50:00;102550.0;;;21.8;42.0
67345;BME280;54230;52.402;6.276;2022-07-06T10:55:00;102550.0;;;21.6;41.1
67345;BME280;54230;52.402;6.276;2022-07-06T11:00:01;102559.99999999999;;;21.2;41.9
67345;BME280;54230;52.402;6.276;2022-07-06T11:05:00;102540.00000000001;;;21.3;40.9
67345;BME280;54230;52.402;6.276;2022-07-06T11:10:00;102550.0;;;21.5;39.9
67345;BME280;54230;52.402;6.276;2022-07-06T11:15:00;102540.00000000001;;;21.4;40.5
67345;BME280;54230;52.402;6.276;2022-07-06T11:20:10;102550.0;;;21.3;41.6
67345;BME280;54230;52.402;6.276;2022-07-06T11:25:00;102540.00000000001;;;21.4;40.7
67345;BME280;54230;52.402;6.276;2022-07-06T11:30:00;102530.0;;;21.9;40.8
67345;BME280;54230;52.402;6.276;2022-07-06T11:35:00;102540.00000000001;;;21.7;39.9
67345;BME280;54230;52.402;6.276;2022-07-06T11:40:06;102530.0;;;21.8;39.3
67345;BME280;54230;52.402;6.276;2022-07-06T11:45:00;102520.0;;;22.2;39.7
67345;BME280;54230;52.402;6.276;2022-07-06T11:50:00;102509.99999999999;;;21.7;40.5
67345;BME280;54230;52.402;6.276;2022-07-06T11:55:00;102500.0;;;21.8;40.4
67345;BME280;54230;52.402;6.276;2022-07-06T12:00:00;102509.99999999999;;;22.2;39.9
67345;BME280;54230;52.402;6.276;2022-07-06T12:05:00;102509.99999999999;;;22.2;38.7
67345;BME280;54230;52.402;6.276;2022-07-06T12:10:00;102490.00000000001;;;21.9;39.2
67345;BME280;54230;52.402;6.276;2022-07-06T12:15:00;102490.00000000001;;;22.1;39.3
67345;BME280;54230;52.402;6.276;2022-07-06T12:20:00;102470.0;;;22.7;38.1
67345;BME280;54230;52.402;6.276;2022-07-06T12:25:00;102490.00000000001;;;23.0;37.8
67345;BME280;54230;52.402;6.276;2022-07-06T12:30:08;102480.0;;;22.8;38.0
67345;BME280;54230;52.402;6.276;2022-07-06T12:35:03;102470.0;;;23.0;37.8
67345;BME280;54230;52.402;6.276;2022-07-06T12:40:00;102480.0;;;22.9;37.5
67345;BME280;54230;52.402;6.276;2022-07-06T12:45:00;102490.00000000001;;;23.4;36.5
67345;BME280;54230;52.402;6.276;2022-07-06T12:50:04;102480.0;;;23.6;35.9
67345;BME280;54230;52.402;6.276;2022-07-06T12:55:00;102490.00000000001;;;23.1;36.5
67345;BME280;54230;52.402;6.276;2022-07-06T13:00:00;102470.0;;;23.7;36.1
67345;BME280;54230;52.402;6.276;2022-07-06T13:05:02;102459.99999999999;;;23.8;36.3
67345;BME280;54230;52.402;6.276;2022-07-06T13:10:00;102470.0;;;24.5;35.0
67345;BME280;54230;52.402;6.276;2022-07-06T13:15:00;102459.99999999999;;;24.1;34.5
67345;BME280;54230;52.402;6.276;2022-07-06T13:20:00;102470.0;;;24.1;33.7
67345;BME280;54230;52.402;6.276;2022-07-06T13:25:00;102450.0;;;24.4;33.2
67345;BME280;54230;52.402;6.276;2022-07-06T13:30:00;102470.0;;;24.5;32.4
67345;BME280;54230;52.402;6.276;2022-07-06T13:35:00;102440.00000000001;;;24.6;32.3
67345;BME280;54230;52.402;6.276;2022-07-06T13:40:00;102430.0;;;24.6;32.7
67345;BME280;54230;52.402;6.276;2022-07-06T13:45:00;102420.0;;;24.6;32.2
67345;BME280;54230;52.402;6.276;2022-07-06T13:50:00;102430.0;;;24.7;32.9
67345;BME280;54230;52.402;6.276;2022-07-06T13:55:00;102430.0;;;24.4;33.0
67345;BME280;54230;52.402;6.276;2022-07-06T14:00:00;102420.0;;;24.5;33.3
67345;BME280;54230;52.402;6.276;2022-07-06T14:05:00;102420.0;;;24.2;34.0
67345;BME280;54230;52.402;6.276;2022-07-06T14:10:00;102409.99999999999;;;24.4;34.9
67345;BME280;54230;52.402;6.276;2022-07-06T14:15:00;102409.99999999999;;;24.3;34.0
67345;BME280;54230;52.402;6.276;2022-07-06T14:20:00;102400.0;;;23.5;35.4
67345;BME280;54230;52.402;6.276;2022-07-06T14:25:00;102400.0;;;23.4;36.2
67345;BME280;54230;52.402;6.276;2022-07-06T14:30:00;102390.0;;;23.4;36.0
67345;BME280;54230;52.402;6.276;2022-07-06T14:35:00;102390.0;;;23.2;36.7
67345;BME280;54230;52.402;6.276;2022-07-06T14:40:00;102390.0;;;23.0;37.3
67345;BME280;54230;52.402;6.276;2022-07-06T14:45:00;102380.0;;;22.7;37.8
67345;BME280;54230;52.402;6.276;2022-07-06T14:50:00;102380.0;;;22.5;38.6
67345;BME280;54230;52.402;6.276;2022-07-06T14:55:00;102380.0;;;22.5;38.7
67345;BME280;54230;52.402;6.276;2022-07-06T15:00:00;102370.0;;;22.3;39.2
67345;BME280;54230;52.402;6.276;2022-07-06T15:05:00;102370.0;;;22.1;39.3
67345;BME280;54230;52.402;6.276;2022-07-06T15:10:01;102380.0;;;22.1;39.7
67345;BME280;54230;52.402;6.276;2022-07-06T15:15:00;102380.0;;;22.0;39.4
67345;BME280;54230;52.402;6.276;2022-07-06T15:20:00;102370.0;;;22.0;39.4
67345;BME280;54230;52.402;6.276;2022-07-06T15:25:00;102360.0;;;22.0;39.6
67345;BME280;54230;52.402;6.276;2022-07-06T15:30:00;102360.0;;;22.0;39.2
67345;BME280;54230;52.402;6.276;2022-07-06T15:35:00;102360.0;;;21.9;39.5
67345;BME280;54230;52.402;6.276;2022-07-06T15:40:00;102350.0;;;22.2;39.7
67345;BME280;54230;52.402;6.276;2022-07-06T15:45:00;102360.0;;;22.1;40.0
67345;BME280;54230;52.402;6.276;2022-07-06T15:50:00;102370.0;;;21.8;41.5
67345;BME280;54230;52.402;6.276;2022-07-06T15:55:00;102350.0;;;21.7;42.2
67345;BME280;54230;52.402;6.276;2022-07-06T16:00:00;102350.0;;;21.5;43.0
67345;BME280;54230;52.402;6.276;2022-07-06T16:05:00;102340.0;;;21.5;43.4
67345;BME280;54230;52.402;6.276;2022-07-06T16:10:00;102350.0;;;21.1;44.0
67345;BME280;54230;52.402;6.276;2022-07-06T16:15:00;102350.0;;;20.6;45.7
67345;BME280;54230;52.402;6.276;2022-07-06T16:20:00;102370.0;;;20.0;48.2
67345;BME280;54230;52.402;6.276;2022-07-06T16:25:00;102390.0;;;19.4;52.6
67345;BME280;54230;52.402;6.276;2022-07-06T16:30:00;102350.0;;;19.2;53.3
67345;BME280;54230;52.402;6.276;2022-07-06T16:35:00;102350.0;;;19.3;53.7
67345;BME280;54230;52.402;6.276;2022-07-06T16:40:00;102340.0;;;19.5;53.3
67345;BME280;54230;52.402;6.276;2022-07-06T16:45:00;102330.0;;;19.5;54.2
67345;BME280;54230;52.402;6.276;2022-07-06T16:50:00;102330.0;;;19.7;54.7
67345;BME280;54230;52.402;6.276;2022-07-06T16:55:00;102310.0;;;19.7;55.4
67345;BME280;54230;52.402;6.276;2022-07-06T17:00:00;102300.0;;;19.9;55.7
67345;BME280;54230;52.402;6.276;2022-07-06T17:05:00;102300.0;;;19.9;55.3
67345;BME280;54230;52.402;6.276;2022-07-06T17:10:00;102290.0;;;20.0;54.7
67345;BME280;54230;52.402;6.276;2022-07-06T17:15:00;102280.0;;;20.0;54.8
67345;BME280;54230;52.402;6.276;2022-07-06T17:20:00;102280.0;;;20.0;55.1
67345;BME280;54230;52.402;6.276;2022-07-06T17:25:00;102280.0;;;20.0;55.1
67345;BME280;54230;52.402;6.276;2022-07-06T17:30:00;102270.0;;;20.1;55.4
67345;BME280;54230;52.402;6.276;2022-07-06T17:35:00;102270.0;;;20.2;55.1
67345;BME280;54230;52.402;6.276;2022-07-06T17:40:00;102270.0;;;20.0;55.2
67345;BME280;54230;52.402;6.276;2022-07-06T17:45:00;102260.0;;;20.1;55.0
67345;BME280;54230;52.402;6.276;2022-07-06T17:50:00;102260.0;;;20.1;55.0
67345;BME280;54230;52.402;6.276;2022-07-06T17:55:00;102260.0;;;20.0;55.4
67345;BME280;54230;52.402;6.276;2022-07-06T18:00:00;102260.0;;;19.9;55.7
67345;BME280;54230;52.402;6.276;2022-07-06T18:05:00;102260.0;;;19.9;56.2
67345;BME280;54230;52.402;6.276;2022-07-06T18:10:00;102250.0;;;19.8;56.2
67345;BME280;54230;52.402;6.276;2022-07-06T18:15:00;102260.0;;;19.5;56.4
67345;BME280;54230;52.402;6.276;2022-07-06T18:20:00;102250.0;;;19.4;56.4
67345;BME280;54230;52.402;6.276;2022-07-06T18:25:00;102250.0;;;19.3;56.5
67345;BME280;54230;52.402;6.276;2022-07-06T18:30:00;102250.0;;;19.2;57.0
67345;BME280;54230;52.402;6.276;2022-07-06T18:35:00;102250.0;;;19.2;57.8
67345;BME280;54230;52.402;6.276;2022-07-06T18:40:00;102240.0;;;19.1;58.2
67345;BME280;54230;52.402;6.276;2022-07-06T18:45:00;102240.0;;;19.3;57.8
67345;BME280;54230;52.402;6.276;2022-07-06T18:50:00;102230.0;;;19.2;58.3
67345;BME280;54230;52.402;6.276;2022-07-06T18:55:00;102220.0;;;19.2;59.3
67345;BME280;54230;52.402;6.276;2022-07-06T19:00:00;102210.0;;;19.2;59.2
67345;BME280;54230;52.402;6.276;2022-07-06T19:05:00;102210.0;;;19.1;59.4
67345;BME280;54230;52.402;6.276;2022-07-06T19:10:00;102200.0;;;19.0;60.1
67345;BME280;54230;52.402;6.276;2022-07-06T19:15:00;102200.0;;;18.9;60.4
67345;BME280;54230;52.402;6.276;2022-07-06T19:20:00;102190.0;;;18.9;60.1
67345;BME280;54230;52.402;6.276;2022-07-06T19:25:00;102190.0;;;18.8;60.4
67345;BME280;54230;52.402;6.276;2022-07-06T19:30:00;102180.0;;;18.8;60.8
67345;BME280;54230;52.402;6.276;2022-07-06T19:35:00;102190.0;;;18.7;61.2
67345;BME280;54230;52.402;6.276;2022-07-06T19:40:00;102170.0;;;18.7;61.2
67345;BME280;54230;52.402;6.276;2022-07-06T19:45:00;102170.0;;;18.7;61.5
67345;BME280;54230;52.402;6.276;2022-07-06T19:50:00;102170.0;;;18.8;61.3
67345;BME280;54230;52.402;6.276;2022-07-06T19:55:00;102170.0;;;18.7;62.1
67345;BME280;54230;52.402;6.276;2022-07-06T20:00:00;102180.0;;;18.7;62.5
67345;BME280;54230;52.402;6.276;2022-07-06T20:05:00;102170.0;;;18.6;62.8
67345;BME280;54230;52.402;6.276;2022-07-06T20:10:00;102180.0;;;18.5;63.9
67345;BME280;54230;52.402;6.276;2022-07-06T20:15:00;102170.0;;;18.4;65.1
67345;BME280;54230;52.402;6.276;2022-07-06T20:20:00;102170.0;;;18.2;66.1
67345;BME280;54230;52.402;6.276;2022-07-06T20:25:00;102170.0;;;18.2;66.6
67345;BME280;54230;52.402;6.276;2022-07-06T20:30:00;102160.0;;;18.2;67.0
67345;BME280;54230;52.402;6.276;2022-07-06T20:35:00;102160.0;;;18.1;67.4
67345;BME280;54230;52.402;6.276;2022-07-06T20:40:00;102160.0;;;18.1;68.0
67345;BME280;54230;52.402;6.276;2022-07-06T20:45:00;102160.0;;;18.0;69.3
67345;BME280;54230;52.402;6.276;2022-07-06T20:50:00;102160.0;;;17.9;70.4
67345;BME280;54230;52.402;6.276;2022-07-06T20:55:00;102140.0;;;17.8;71.3
67345;BME280;54230;52.402;6.276;2022-07-06T21:00:00;102150.0;;;17.8;71.9
67345;BME280;54230;52.402;6.276;2022-07-06T21:05:00;102150.0;;;17.7;72.5
67345;BME280;54230;52.402;6.276;2022-07-06T21:10:00;102140.0;;;17.6;73.2
67345;BME280;54230;52.402;6.276;2022-07-06T21:15:00;102140.0;;;17.6;73.5
67345;BME280;54230;52.402;6.276;2022-07-06T21:20:00;102140.0;;;17.6;73.9
67345;BME280;54230;52.402;6.276;2022-07-06T21:25:00;102140.0;;;17.6;73.4
67345;BME280;54230;52.402;6.276;2022-07-06T21:30:00;102130.0;;;17.7;73.0
67345;BME280;54230;52.402;6.276;2022-07-06T21:35:00;102120.0;;;17.7;73.6
67345;BME280;54230;52.402;6.276;2022-07-06T21:40:00;102110.0;;;17.7;73.5
67345;BME280;54230;52.402;6.276;2022-07-06T21:45:00;102110.0;;;17.7;73.2
67345;BME280;54230;52.402;6.276;2022-07-06T21:50:00;102100.0;;;17.6;73.7
67345;BME280;54230;52.402;6.276;2022-07-06T21:55:00;102090.0;;;17.7;73.3
67345;BME280;54230;52.402;6.276;2022-07-06T22:00:00;102080.0;;;17.6;73.6
67345;BME280;54230;52.402;6.276;2022-07-06T22:05:00;102090.0;;;17.6;73.5
67345;BME280;54230;52.402;6.276;2022-07-06T22:10:00;102090.0;;;17.6;73.6
67345;BME280;54230;52.402;6.276;2022-07-06T22:15:00;102070.0;;;17.5;73.6
67345;BME280;54230;52.402;6.276;2022-07-06T22:20:00;102070.0;;;17.6;73.8
67345;BME280;54230;52.402;6.276;2022-07-06T22:25:00;102070.0;;;17.6;73.5
67345;BME280;54230;52.402;6.276;2022-07-06T22:30:00;102060.0;;;17.6;73.7
67345;BME280;54230;52.402;6.276;2022-07-06T22:35:00;102060.0;;;17.6;73.9
67345;BME280;54230;52.402;6.276;2022-07-06T22:40:00;102060.0;;;17.6;74.0
67345;BME280;54230;52.402;6.276;2022-07-06T22:45:00;102060.0;;;17.6;74.0
67345;BME280;54230;52.402;6.276;2022-07-06T22:50:00;102040.0;;;17.6;74.1
67345;BME280;54230;52.402;6.276;2022-07-06T22:55:00;102030.0;;;17.6;74.1
67345;BME280;54230;52.402;6.276;2022-07-06T23:00:00;102030.0;;;17.5;74.2
67345;BME280;54230;52.402;6.276;2022-07-06T23:05:00;102030.0;;;17.5;74.3
67345;BME280;54230;52.402;6.276;2022-07-06T23:10:00;102030.0;;;17.6;74.3
67345;BME280;54230;52.402;6.276;2022-07-06T23:15:00;102030.0;;;17.6;74.3
67345;BME280;54230;52.402;6.276;2022-07-06T23:20:00;102030.0;;;17.6;74.4
67345;BME280;54230;52.402;6.276;2022-07-06T23:25:00;102020.0;;;17.6;74.4
67345;BME280;54230;52.402;6.276;2022-07-06T23:30:00;102010.0;;;17.6;74.4
67345;BME280;54230;52.402;6.276;2022-07-06T23:35:00;101980.0;;;17.5;74.7
67345;BME280;54230;52.402;6.276;2022-07-06T23:40:00;101980.0;;;17.6;74.8
67345;BME280;54230;52.402;6.276;2022-07-06T23:45:00;101960.0;;;17.6;74.8
67345;BME280;54230;52.402;6.276;2022-07-06T23:50:00;101960.0;;;17.6;75.0
67345;BME280;54230;52.402;6.276;2022-07-06T23:55:00;101950.0;;;17.5;75.3
